Time;durP1;ratioP1;P1;durP2;ratioP2;P2;SDS_P1;SDS_P2;PMS_P1;PMS_P2;Temp;Humidity;BMP_temperature;BMP_pressure;BME280_temperature;BME280_humidity;BME280_pressure;Samples;Min_cycle;Max_cycle;Signal;HPM_P1;HPM_P2
2024/02/09 00:00:21;;;;;;;;;;;;;;;;;;4988212;28;89230;-64
2024/02/09 00:02:47;;;;;;;;;;;;;;;;;;4988165;28;89263;-63
2024/02/09 00:05:13;;;;;;;;;;;;;;;;;;4988370;28;90102;-63
2024/02/09 00:07:39;;;;;;;;;;;;;;;;;;4988011;28;89414;-64
2024/02/09 00:10:05;;;;;;;;;;;;;;;;;;4987813;28;89393;-63
2024/02/09 00:12:30;;;;;;;;;;;;;;;;;;4991473;28;89459;-63
2024/02/09 00:14:58;;;;;;;;;;;;;;;;;;4988059;28;89313;-63
2024/02/09 00:17:24;;;;;;;;;;;;;;;;;;4986418;28;92041;-63
2024/02/09 00:19:49;;;;;;;;;;;;;;;;;;4987836;28;89774;-63
2024/02/09 00:22:15;;;;;;;;;;;;;;;;;;4988116;28;90530;-64
2024/02/09 00:24:44;;;;;;;;;;;;;;;;;;4987860;28;90112;-63
2024/02/09 00:27:09;;;;;;;;;;;;;;;;;;4987728;28;89484;-64
2024/02/09 00:29:35;;;;;;;;;;;;;;;;;;4987998;28;89946;-63
2024/02/09 00:32:00;;;;;;;;;;;;;;;;;;4987581;28;89725;-63
2024/02/09 00:34:26;;;;;;;;;;;;;;;;;;4989502;28;89398;-63
2024/02/09 00:36:51;;;;;;;;;;;;;;;;;;4987117;28;90880;-63
2024/02/09 00:39:16;;;;;;;;;;;;;;;;;;4988007;28;89075;-63
2024/02/09 00:41:42;;;;;;;;;;;;;;;;;;4987822;28;89518;-63
2024/02/09 00:44:07;;;;;;;;;;;;;;;;;;4987531;28;89890;-64
2024/02/09 00:46:32;;;;;;;;;;;;;;;;;;4987533;28;91228;-63
2024/02/09 00:49:03;;;;;;;;;;;;;;;;;;4987857;28;89797;-63
2024/02/09 00:51:31;;;;;;;;;;;;;;;;;;4987861;28;89975;-63
2024/02/09 00:53:57;;;;;;;;;;;;;;;;;;4990788;28;89533;-63
2024/02/09 00:56:23;;;;;;;;;;;;;;;;;;4987180;28;89363;-63
2024/02/09 00:58:49;;;;;;;;;;;;;;;;;;4988048;28;89134;-64
2024/02/09 01:01:14;;;;;;;;;;;;;;;;;;4990209;28;92045;-64
2024/02/09 01:03:39;;;;;;;;;;;;;;;;;;5007650;28;90712;-64
2024/02/09 01:06:06;;;;;;;;;;;;;;;;;;5007235;28;89936;-64
2024/02/09 01:08:31;;;;;;;;;;;;;;;;;;5007020;28;90679;-64
2024/02/09 01:10:57;;;;;;;;;;;;;;;;;;5007199;28;89496;-64
2024/02/09 02:46:13;;;;;;;;;;;;;;;;;;4986331;28;89671;-64
2024/02/09 03:05:08;;;;;;;;;;;;;;;;;;4986506;28;89606;-64
2024/02/09 03:07:34;;;;;;;;;;;;;;;;;;4985783;28;90465;-63
2024/02/09 03:10:01;;;;;;;;;;;;;;;;;;4984688;28;90350;-63
2024/02/09 03:12:28;;;;;;;;;;;;;;;;;;4985793;28;89649;-63
2024/02/09 03:14:54;;;;;;;;;;;;;;;;;;4989197;28;90199;-64
2024/02/09 03:17:19;;;;;;;;;;;;;;;;;;4986125;28;90823;-63
2024/02/09 03:19:44;;;;;;;;;;;;;;;;;;4980327;28;89166;-63
2024/02/09 03:22:10;;;;;;;;;;;;;;;;;;4985414;28;89508;-63
2024/02/09 03:24:35;;;;;;;;;;;;;;;;;;4985811;28;89512;-63
2024/02/09 03:27:00;;;;;;;;;;;;;;;;;;4985747;28;89636;-63
2024/02/09 03:29:29;;;;;;;;;;;;;;;;;;4985437;28;89128;-64
2024/02/09 03:31:57;;;;;;;;;;;;;;;;;;4985942;28;90189;-64
2024/02/09 03:34:23;;;;;;;;;;;;;;;;;;4985579;28;89576;-64
2024/02/09 03:36:48;;;;;;;;;;;;;;;;;;4988034;28;89439;-63
2024/02/09 03:39:13;;;;;;;;;;;;;;;;;;4985714;28;89359;-63
2024/02/09 03:41:38;;;;;;;;;;;;;;;;;;4985406;28;89313;-63
2024/02/09 03:44:03;;;;;;;;;;;;;;;;;;4985260;28;90958;-63
2024/02/09 03:46:31;;;;;;;;;;;;;;;;;;4984683;28;90157;-63
2024/02/09 03:48:56;;;;;;;;;;;;;;;;;;4984826;28;89040;-63
2024/02/09 03:51:25;;;;;;;;;;;;;;;;;;4984752;28;89040;-63
2024/02/09 03:53:50;;;;;;;;;;;;;;;;;;4981323;28;89977;-64
2024/02/09 03:56:15;;;;;;;;;;;;;;;;;;4984894;28;89652;-64
2024/02/09 03:58:42;;;;;;;;;;;;;;;;;;4987546;28;89799;-63
2024/02/09 04:01:08;;;;;;;;;;;;;;;;;;4987616;28;88972;-63
2024/02/09 04:03:33;;;;;;;;;;;;;;;;;;5005286;28;90716;-63
2024/02/09 04:05:59;;;;;;;;;;;;;;;;;;5004370;28;89602;-63
2024/02/09 04:08:24;;;;;;;;;;;;;;;;;;5006204;28;89044;-63
2024/02/09 04:10:49;;;;;;;;;;;;;;;;;;5007850;28;88945;-63
2024/02/09 04:13:14;;;;;;;;;;;;;;;;;;5006696;28;89153;-63
2024/02/09 04:15:39;;;;;;;;;;;;;;;;;;5008196;28;89482;-63
2024/02/09 04:18:06;;;;;;;;;;;;;;;;;;5008209;28;90239;-64
2024/02/09 04:20:32;;;;;;;;;;;;;;;;;;5011009;28;89992;-64
2024/02/09 04:23:00;;;;;;;;;;;;;;;;;;5008124;28;89910;-64
2024/02/09 04:25:25;;;;;;;;;;;;;;;;;;5008360;28;89855;-63
2024/02/09 04:27:51;;;;;;;;;;;;;;;;;;5008052;28;89580;-63
2024/02/09 04:30:18;;;;;;;;;;;;;;;;;;4997484;28;90681;-63
2024/02/09 04:32:43;;;;;;;;;;;;;;;;;;4986195;28;91458;-63
2024/02/09 04:35:08;;;;;;;;;;;;;;;;;;4987708;28;89429;-63
2024/02/09 04:37:33;;;;;;;;;;;;;;;;;;4987260;28;89476;-63
2024/02/09 04:39:59;;;;;;;;;;;;;;;;;;4986946;28;89423;-63
2024/02/09 04:42:24;;;;;;;;;;;;;;;;;;4991011;28;89277;-63
2024/02/09 04:44:49;;;;;;;;;;;;;;;;;;4987908;28;89659;-64
2024/02/09 04:47:14;;;;;;;;;;;;;;;;;;4987296;28;89455;-63
2024/02/09 04:49:40;;;;;;;;;;;;;;;;;;4987892;28;89449;-64
2024/02/09 04:52:05;;;;;;;;;;;;;;;;;;4987620;28;89512;-63
2024/02/09 04:54:32;;;;;;;;;;;;;;;;;;4987656;28;89462;-63
2024/02/09 04:56:57;;;;;;;;;;;;;;;;;;4986995;28;89494;-63
2024/02/09 04:59:27;;;;;;;;;;;;;;;;;;4987206;28;89884;-63
2024/02/09 05:01:52;;;;;;;;;;;;;;;;;;4991192;28;89673;-63
2024/02/09 05:04:18;;;;;;;;;;;;;;;;;;4990551;28;89270;-63
2024/02/09 05:06:43;;;;;;;;;;;;;;;;;;4987991;28;89951;-63
2024/02/09 05:09:11;;;;;;;;;;;;;;;;;;4987367;28;90466;-63
2024/02/09 05:11:37;;;;;;;;;;;;;;;;;;4987047;28;89178;-63
2024/02/09 05:14:06;;;;;;;;;;;;;;;;;;4986827;28;88903;-65
2024/02/09 05:16:32;;;;;;;;;;;;;;;;;;4986336;28;90000;-63
2024/02/09 05:18:57;;;;;;;;;;;;;;;;;;4986585;28;90280;-63
2024/02/09 05:21:23;;;;;;;;;;;;;;;;;;4987393;28;89324;-63
2024/02/09 05:23:48;;;;;;;;;;;;;;;;;;4989752;28;89371;-63
2024/02/09 05:26:14;;;;;;;;;;;;;;;;;;4987532;28;89182;-63
2024/02/09 05:28:43;;;;;;;;;;;;;;;;;;4986987;28;90138;-63
2024/02/09 05:31:19;;;;;;;;;;;;;;;;;;4986839;28;90001;-64
2024/02/09 05:33:45;;;;;;;;;;;;;;;;;;4986682;28;89371;-63
2024/02/09 05:36:23;;;;;;;;;;;;;;;;;;4986855;28;89538;-63
2024/02/09 05:38:50;;;;;;;;;;;;;;;;;;4986669;28;89248;-64
2024/02/09 05:41:16;;;;;;;;;;;;;;;;;;4985814;28;89047;-63
2024/02/09 05:43:42;;;;;;;;;;;;;;;;;;4984910;28;91558;-63
2024/02/09 05:46:07;;;;;;;;;;;;;;;;;;4977661;28;89531;-63
2024/02/09 05:48:32;;;;;;;;;;;;;;;;;;4986215;28;89449;-63
2024/02/09 05:50:57;;;;;;;;;;;;;;;;;;4986795;28;89217;-63
2024/02/09 05:53:23;;;;;;;;;;;;;;;;;;4986276;28;89040;-64
2024/02/09 05:55:49;;;;;;;;;;;;;;;;;;4986493;28;91023;-63
2024/02/09 05:58:14;;;;;;;;;;;;;;;;;;4986302;28;89796;-64
2024/02/09 06:00:39;;;;;;;;;;;;;;;;;;4986373;28;89062;-64
2024/02/09 06:03:08;;;;;;;;;;;;;;;;;;5005604;28;89755;-63
2024/02/09 06:05:33;;;;;;;;;;;;;;;;;;5005887;28;89224;-63
2024/02/09 06:08:00;;;;;;;;;;;;;;;;;;5009929;28;89031;-63
2024/02/09 06:10:26;;;;;;;;;;;;;;;;;;5006165;28;90322;-63
2024/02/09 06:12:51;;;;;;;;;;;;;;;;;;5006053;28;89880;-64
2024/02/09 06:15:17;;;;;;;;;;;;;;;;;;5002864;28;89773;-63
2024/02/09 06:17:42;;;;;;;;;;;;;;;;;;4979813;28;89304;-63
2024/02/09 06:20:08;;;;;;;;;;;;;;;;;;4986142;28;89903;-64
2024/02/09 06:22:34;;;;;;;;;;;;;;;;;;4986218;28;91041;-64
2024/02/09 06:25:00;;;;;;;;;;;;;;;;;;4986534;28;89515;-64
2024/02/09 06:27:26;;;;;;;;;;;;;;;;;;4986732;28;89490;-64
2024/02/09 06:29:52;;;;;;;;;;;;;;;;;;4989555;28;89632;-65
2024/02/09 06:32:19;;;;;;;;;;;;;;;;;;4983571;28;89027;-64
2024/02/09 06:34:44;;;;;;;;;;;;;;;;;;4977316;28;91161;-65
2024/02/09 06:37:10;;;;;;;;;;;;;;;;;;4980275;28;89222;-64
2024/02/09 06:39:35;;;;;;;;;;;;;;;;;;4977610;28;89607;-64
2024/02/09 06:42:00;;;;;;;;;;;;;;;;;;4982400;28;90736;-64
2024/02/09 06:44:25;;;;;;;;;;;;;;;;;;4973970;28;89370;-64
2024/02/09 06:46:50;;;;;;;;;;;;;;;;;;4977393;28;89429;-64
2024/02/09 06:49:16;;;;;;;;;;;;;;;;;;4983691;28;89531;-64
2024/02/09 06:51:45;;;;;;;;;;;;;;;;;;4977561;28;89172;-64
2024/02/09 06:54:10;;;;;;;;;;;;;;;;;;4983287;28;89984;-64
2024/02/09 06:56:35;;;;;;;;;;;;;;;;;;4989061;28;90234;-64
2024/02/09 06:59:01;;;;;;;;;;;;;;;;;;4975979;28;89596;-64
2024/02/09 07:01:27;;;;;;;;;;;;;;;;;;4980498;28;89587;-65
2024/02/09 07:03:53;;;;;;;;;;;;;;;;;;4979425;28;90646;-64
2024/02/09 07:06:19;;;;;;;;;;;;;;;;;;4974540;28;89075;-64
2024/02/09 07:08:51;;;;;;;;;;;;;;;;;;4973697;28;90034;-64
2024/02/09 07:11:16;;;;;;;;;;;;;;;;;;4980206;28;89393;-63
2024/02/09 07:13:42;;;;;;;;;;;;;;;;;;4976052;28;89642;-65
2024/02/09 07:16:07;;;;;;;;;;;;;;;;;;4974025;28;90387;-64
2024/02/09 07:18:40;;;;;;;;;;;;;;;;;;4977067;28;90131;-65
2024/02/09 07:21:06;;;;;;;;;;;;;;;;;;4973828;28;89341;-64
2024/02/09 07:23:31;;;;;;;;;;;;;;;;;;4981664;28;90120;-64
2024/02/09 07:25:57;;;;;;;;;;;;;;;;;;4976967;28;89510;-64
2024/02/09 07:28:22;;;;;;;;;;;;;;;;;;4971939;28;90674;-64
2024/02/09 07:30:47;;;;;;;;;;;;;;;;;;4972869;28;90485;-65
2024/02/09 07:33:14;;;;;;;;;;;;;;;;;;4969144;28;89019;-64
2024/02/09 07:35:39;;;;;;;;;;;;;;;;;;4975205;28;89611;-64
2024/02/09 07:38:04;;;;;;;;;;;;;;;;;;4974746;28;89603;-64
2024/02/09 07:40:30;;;;;;;;;;;;;;;;;;4976342;28;89548;-65
2024/02/09 07:42:55;;;;;;;;;;;;;;;;;;4993877;28;92268;-65
2024/02/09 07:45:22;;;;;;;;;;;;;;;;;;4970923;28;89950;-64
2024/02/09 07:47:49;;;;;;;;;;;;;;;;;;4982559;28;90170;-63
2024/02/09 07:50:14;;;;;;;;;;;;;;;;;;4978286;28;90250;-64
2024/02/09 07:52:40;;;;;;;;;;;;;;;;;;4979202;28;89546;-64
2024/02/09 07:55:06;;;;;;;;;;;;;;;;;;4983271;28;90478;-64
2024/02/09 07:57:31;;;;;;;;;;;;;;;;;;4978300;28;89199;-63
2024/02/09 07:59:58;;;;;;;;;;;;;;;;;;4981213;28;90820;-64
2024/02/09 08:02:24;;;;;;;;;;;;;;;;;;4997404;28;89450;-63
2024/02/09 08:04:49;;;;;;;;;;;;;;;;;;4983019;28;88978;-64
2024/02/09 08:07:15;;;;;;;;;;;;;;;;;;4981948;28;89440;-70
2024/02/09 08:09:40;;;;;;;;;;;;;;;;;;4977598;28;89626;-63
2024/02/09 08:12:05;;;;;;;;;;;;;;;;;;4977213;28;90146;-63
2024/02/09 08:14:36;;;;;;;;;;;;;;;;;;4977719;28;90560;-64
2024/02/09 08:17:03;;;;;;;;;;;;;;;;;;4981081;28;89365;-64
2024/02/09 08:19:28;;;;;;;;;;;;;;;;;;4981334;28;90546;-64
2024/02/09 08:21:55;;;;;;;;;;;;;;;;;;4982446;28;89424;-65
2024/02/09 08:24:21;;;;;;;;;;;;;;;;;;4976905;28;89524;-64
2024/02/09 08:26:46;;;;;;;;;;;;;;;;;;4972992;28;90253;-64
2024/02/09 08:29:11;;;;;;;;;;;;;;;;;;4978096;28;89835;-64
2024/02/09 08:31:36;;;;;;;;;;;;;;;;;;4979298;28;89083;-64
2024/02/09 08:34:02;;;;;;;;;;;;;;;;;;4972861;28;90922;-64
2024/02/09 08:36:28;;;;;;;;;;;;;;;;;;4978457;28;89956;-65
2024/02/09 08:38:53;;;;;;;;;;;;;;;;;;4984100;28;88977;-64
2024/02/09 08:41:18;;;;;;;;;;;;;;;;;;4978010;28;89444;-64
2024/02/09 08:43:44;;;;;;;;;;;;;;;;;;4983843;28;89624;-64
2024/02/09 08:46:09;;;;;;;;;;;;;;;;;;4972440;28;90857;-65
2024/02/09 08:48:34;;;;;;;;;;;;;;;;;;4980560;28;89579;-64
2024/02/09 08:51:00;;;;;;;;;;;;;;;;;;4976212;28;89390;-64
2024/02/09 08:53:25;;;;;;;;;;;;;;;;;;4980329;28;89546;-64
2024/02/09 08:55:50;;;;;;;;;;;;;;;;;;4976095;28;89739;-64
2024/02/09 08:58:19;;;;;;;;;;;;;;;;;;4976205;28;89355;-64
2024/02/09 09:00:44;;;;;;;;;;;;;;;;;;4982205;28;90654;-64
2024/02/09 09:03:10;;;;;;;;;;;;;;;;;;5000224;28;88915;-63
2024/02/09 09:05:36;;;;;;;;;;;;;;;;;;4977639;28;89809;-63
2024/02/09 09:08:01;;;;;;;;;;;;;;;;;;4978088;28;89587;-64
2024/02/09 09:10:26;;;;;;;;;;;;;;;;;;4978012;28;89671;-64
2024/02/09 09:12:51;;;;;;;;;;;;;;;;;;4977864;28;90636;-64
2024/02/09 09:15:17;;;;;;;;;;;;;;;;;;4972046;28;89595;-63
2024/02/09 09:17:42;;;;;;;;;;;;;;;;;;4979471;28;89115;-64
2024/02/09 09:20:10;;;;;;;;;;;;;;;;;;4979224;28;89020;-64
2024/02/09 09:22:36;;;;;;;;;;;;;;;;;;4976829;28;89562;-64
2024/02/09 09:25:04;;;;;;;;;;;;;;;;;;4976920;28;89569;-64
2024/02/09 09:27:29;;;;;;;;;;;;;;;;;;4978229;28;90198;-64
2024/02/09 09:29:54;;;;;;;;;;;;;;;;;;4978744;28;89159;-63
2024/02/09 09:32:20;;;;;;;;;;;;;;;;;;4975759;28;89474;-64
2024/02/09 09:34:45;;;;;;;;;;;;;;;;;;4978333;28;89873;-64
2024/02/09 09:37:10;;;;;;;;;;;;;;;;;;4976560;28;89554;-64
2024/02/09 09:39:36;;;;;;;;;;;;;;;;;;4976704;28;90031;-64
2024/02/09 09:42:01;;;;;;;;;;;;;;;;;;4974030;28;89393;-64
2024/02/09 09:44:26;;;;;;;;;;;;;;;;;;4974219;28;89529;-64
2024/02/09 09:46:52;;;;;;;;;;;;;;;;;;4978497;28;89855;-64
2024/02/09 09:49:18;;;;;;;;;;;;;;;;;;4976431;28;89062;-64
2024/02/09 09:51:49;;;;;;;;;;;;;;;;;;4976488;28;89782;-64
2024/02/09 09:54:15;;;;;;;;;;;;;;;;;;4979559;28;90012;-64
2024/02/09 09:56:44;;;;;;;;;;;;;;;;;;4973253;28;89553;-64
2024/02/09 09:59:10;;;;;;;;;;;;;;;;;;4982702;28;90876;-64
2024/02/09 10:01:35;;;;;;;;;;;;;;;;;;4986744;28;89311;-64
2024/02/09 10:04:00;;;;;;;;;;;;;;;;;;4981564;28;90086;-64
2024/02/09 10:06:28;;;;;;;;;;;;;;;;;;4981748;28;89620;-64
2024/02/09 10:08:53;;;;;;;;;;;;;;;;;;4981139;28;89387;-64
2024/02/09 10:11:18;;;;;;;;;;;;;;;;;;4976049;28;91842;-64
2024/02/09 10:13:44;;;;;;;;;;;;;;;;;;4983092;28;89442;-63
2024/02/09 10:16:09;;;;;;;;;;;;;;;;;;4975753;28;89408;-63
2024/02/09 10:18:36;;;;;;;;;;;;;;;;;;4986459;28;89641;-63
2024/02/09 10:21:02;;;;;;;;;;;;;;;;;;4985688;28;89474;-62
2024/02/09 10:23:28;;;;;;;;;;;;;;;;;;4981260;28;89725;-64
2024/02/09 10:25:55;;;;;;;;;;;;;;;;;;4984772;28;89717;-64
2024/02/09 10:28:23;;;;;;;;;;;;;;;;;;4981419;28;90003;-64
2024/02/09 10:30:48;;;;;;;;;;;;;;;;;;4979068;28;91203;-64
2024/02/09 10:33:13;;;;;;;;;;;;;;;;;;4970131;28;90087;-64
2024/02/09 10:35:40;;;;;;;;;;;;;;;;;;4979196;28;89548;-64
2024/02/09 10:38:05;;;;;;;;;;;;;;;;;;4984633;28;89553;-64
2024/02/09 10:40:32;;;;;;;;;;;;;;;;;;4979150;28;89468;-64
2024/02/09 10:42:59;;;;;;;;;;;;;;;;;;4977876;28;89966;-64
2024/02/09 10:45:25;;;;;;;;;;;;;;;;;;4981996;28;89647;-64
2024/02/09 10:47:54;;;;;;;;;;;;;;;;;;4983378;28;89932;-64
2024/02/09 10:50:19;;;;;;;;;;;;;;;;;;4981421;28;91166;-64
2024/02/09 10:52:49;;;;;;;;;;;;;;;;;;4978836;28;90262;-64
2024/02/09 10:55:20;;;;;;;;;;;;;;;;;;4981817;28;89559;-64
2024/02/09 10:57:45;;;;;;;;;;;;;;;;;;4976492;28;89787;-65
2024/02/09 11:00:11;;;;;;;;;;;;;;;;;;4974276;28;89896;-64
2024/02/09 11:02:36;;;;;;;;;;;;;;;;;;4978452;28;89229;-66
2024/02/09 11:05:03;;;;;;;;;;;;;;;;;;4974478;28;90349;-65
2024/02/09 11:07:28;;;;;;;;;;;;;;;;;;4975545;28;91872;-70
2024/02/09 11:09:54;;;;;;;;;;;;;;;;;;4984711;28;89858;-71
2024/02/09 11:12:22;;;;;;;;;;;;;;;;;;4983789;28;89390;-64
2024/02/09 11:14:47;;;;;;;;;;;;;;;;;;4973576;28;88995;-65
2024/02/09 11:17:15;;;;;;;;;;;;;;;;;;4979724;28;89070;-64
2024/02/09 11:19:41;;;;;;;;;;;;;;;;;;4977197;28;89831;-63
2024/02/09 11:22:07;;;;;;;;;;;;;;;;;;4975567;28;89458;-64
2024/02/09 11:24:33;;;;;;;;;;;;;;;;;;4977449;28;90109;-64
2024/02/09 11:26:59;;;;;;;;;;;;;;;;;;4977321;28;89269;-65
2024/02/09 11:29:24;;;;;;;;;;;;;;;;;;4980141;28;90514;-64
2024/02/09 11:31:51;;;;;;;;;;;;;;;;;;4977086;28;89896;-64
2024/02/09 11:34:18;;;;;;;;;;;;;;;;;;4975171;28;89046;-64
2024/02/09 11:36:43;;;;;;;;;;;;;;;;;;4976547;28;90725;-65
2024/02/09 11:39:10;;;;;;;;;;;;;;;;;;4978385;28;89456;-64
2024/02/09 11:41:35;;;;;;;;;;;;;;;;;;4981216;28;89340;-66
2024/02/09 11:44:00;;;;;;;;;;;;;;;;;;4978794;28;89638;-66
2024/02/09 11:46:26;;;;;;;;;;;;;;;;;;4978166;28;89693;-66
2024/02/09 11:48:51;;;;;;;;;;;;;;;;;;4978009;28;89372;-65
2024/02/09 11:51:20;;;;;;;;;;;;;;;;;;4981749;28;90695;-65
2024/02/09 11:53:49;;;;;;;;;;;;;;;;;;4981387;28;89113;-66
2024/02/09 11:56:14;;;;;;;;;;;;;;;;;;4983516;28;90127;-66
2024/02/09 11:58:41;;;;;;;;;;;;;;;;;;4981220;28;90290;-66
2024/02/09 12:01:07;;;;;;;;;;;;;;;;;;4982791;28;90175;-65
2024/02/09 12:03:32;;;;;;;;;;;;;;;;;;4985163;28;90081;-65
2024/02/09 12:05:57;;;;;;;;;;;;;;;;;;4980435;28;89710;-68
2024/02/09 12:08:23;;;;;;;;;;;;;;;;;;4976551;28;89282;-64
2024/02/09 12:10:50;;;;;;;;;;;;;;;;;;4983249;28;89551;-64
2024/02/09 12:13:15;;;;;;;;;;;;;;;;;;4988170;28;90059;-65
2024/02/09 12:15:40;;;;;;;;;;;;;;;;;;4976025;28;89556;-71
2024/02/09 12:18:08;;;;;;;;;;;;;;;;;;4979409;28;89260;-63
2024/02/09 12:20:34;;;;;;;;;;;;;;;;;;4975931;28;89634;-63
2024/02/09 12:23:04;;;;;;;;;;;;;;;;;;4982467;28;89731;-63
2024/02/09 12:25:37;;;;;;;;;;;;;;;;;;4978332;28;90730;-63
2024/02/09 12:28:03;;;;;;;;;;;;;;;;;;4978689;28;89354;-63
2024/02/09 12:30:28;;;;;;;;;;;;;;;;;;4970434;28;89382;-63
2024/02/09 12:32:56;;;;;;;;;;;;;;;;;;4983757;28;90209;-63
2024/02/09 12:35:31;;;;;;;;;;;;;;;;;;4985467;28;89444;-66
2024/02/09 12:37:57;;;;;;;;;;;;;;;;;;4976845;28;89294;-64
2024/02/09 12:40:22;;;;;;;;;;;;;;;;;;4980570;28;89432;-63
2024/02/09 12:42:48;;;;;;;;;;;;;;;;;;4970003;28;89756;-65
2024/02/09 12:45:13;;;;;;;;;;;;;;;;;;4977263;28;92097;-66
2024/02/09 12:47:38;;;;;;;;;;;;;;;;;;4976730;28;89121;-64
2024/02/09 12:50:05;;;;;;;;;;;;;;;;;;4980240;28;89422;-65
2024/02/09 12:52:31;;;;;;;;;;;;;;;;;;4985687;28;90317;-65
2024/02/09 12:54:56;;;;;;;;;;;;;;;;;;4978635;28;89138;-66
2024/02/09 12:57:22;;;;;;;;;;;;;;;;;;4985815;28;89747;-66
2024/02/09 12:59:47;;;;;;;;;;;;;;;;;;4985696;28;89609;-63
2024/02/09 13:02:13;;;;;;;;;;;;;;;;;;4986155;28;89753;-65
2024/02/09 13:04:38;;;;;;;;;;;;;;;;;;4979819;28;89782;-66
2024/02/09 13:07:06;;;;;;;;;;;;;;;;;;4985610;28;89439;-66
2024/02/09 13:09:32;;;;;;;;;;;;;;;;;;4981124;28;89119;-66
2024/02/09 13:11:57;;;;;;;;;;;;;;;;;;4987296;28;89404;-64
2024/02/09 13:14:23;;;;;;;;;;;;;;;;;;4981919;28;89699;-65
2024/02/09 13:16:48;;;;;;;;;;;;;;;;;;4980778;28;90560;-69
2024/02/09 13:19:22;;;;;;;;;;;;;;;;;;4981163;28;89692;-67
2024/02/09 13:22:08;;;;;;;;;;;;;;;;;;4972095;28;90830;-66
2024/02/09 13:24:33;;;;;;;;;;;;;;;;;;4982935;28;89522;-64
2024/02/09 13:26:59;;;;;;;;;;;;;;;;;;4984211;28;89868;-66
2024/02/09 13:29:25;;;;;;;;;;;;;;;;;;4983452;28;90579;-66
2024/02/09 13:31:51;;;;;;;;;;;;;;;;;;4976630;28;90058;-66
2024/02/09 13:34:17;;;;;;;;;;;;;;;;;;4977256;28;89750;-67
2024/02/09 13:36:42;;;;;;;;;;;;;;;;;;4976122;28;89584;-67
2024/02/09 13:39:07;;;;;;;;;;;;;;;;;;4974729;28;89400;-68
2024/02/09 13:41:33;;;;;;;;;;;;;;;;;;4976970;28;89225;-69
2024/02/09 13:43:59;;;;;;;;;;;;;;;;;;4977664;28;89389;-73
2024/02/09 13:46:25;;;;;;;;;;;;;;;;;;4977218;28;90227;-67
2024/02/09 13:48:51;;;;;;;;;;;;;;;;;;4971519;28;89572;-69
2024/02/09 13:51:19;;;;;;;;;;;;;;;;;;4974368;28;89680;-64
2024/02/09 13:53:47;;;;;;;;;;;;;;;;;;4978615;28;91064;-65
2024/02/09 13:56:14;;;;;;;;;;;;;;;;;;4972141;28;90891;-65
2024/02/09 13:58:39;;;;;;;;;;;;;;;;;;4975723;28;90253;-63
2024/02/09 14:01:05;;;;;;;;;;;;;;;;;;4982326;28;89136;-68
2024/02/09 14:03:30;;;;;;;;;;;;;;;;;;4992496;28;90912;-69
2024/02/09 14:05:56;;;;;;;;;;;;;;;;;;4976733;28;89170;-70
2024/02/09 14:08:22;;;;;;;;;;;;;;;;;;4976431;28;90072;-67
2024/02/09 14:10:48;;;;;;;;;;;;;;;;;;4976240;28;89461;-66
2024/02/09 14:13:13;;;;;;;;;;;;;;;;;;4977009;28;89574;-67
2024/02/09 14:15:38;;;;;;;;;;;;;;;;;;4977656;28;90591;-68
2024/02/09 14:18:04;;;;;;;;;;;;;;;;;;4979914;28;89079;-66
2024/02/09 14:20:30;;;;;;;;;;;;;;;;;;4979495;28;89425;-66
2024/02/09 14:22:56;;;;;;;;;;;;;;;;;;4975885;28;89455;-67
2024/02/09 14:25:21;;;;;;;;;;;;;;;;;;4975538;28;89229;-66
2024/02/09 14:27:47;;;;;;;;;;;;;;;;;;4973683;28;90585;-64
2024/02/09 14:30:12;;;;;;;;;;;;;;;;;;4981457;28;92047;-65
2024/02/09 14:32:37;;;;;;;;;;;;;;;;;;4982075;28;89138;-66
2024/02/09 14:35:03;;;;;;;;;;;;;;;;;;4981075;28;91051;-64
2024/02/09 14:37:29;;;;;;;;;;;;;;;;;;4979719;28;90016;-68
2024/02/09 14:39:54;;;;;;;;;;;;;;;;;;4979390;28;89633;-65
2024/02/09 14:42:22;;;;;;;;;;;;;;;;;;4977610;28;90815;-64
2024/02/09 14:44:47;;;;;;;;;;;;;;;;;;4979605;28;90145;-68
2024/02/09 14:47:16;;;;;;;;;;;;;;;;;;4980223;28;89499;-65
2024/02/09 14:49:41;;;;;;;;;;;;;;;;;;4977548;28;90352;-68
2024/02/09 14:52:07;;;;;;;;;;;;;;;;;;4982999;28;90307;-64
2024/02/09 14:54:35;;;;;;;;;;;;;;;;;;4973305;28;90778;-66
2024/02/09 14:57:00;;;;;;;;;;;;;;;;;;4977459;28;89788;-69
2024/02/09 14:59:25;;;;;;;;;;;;;;;;;;4965513;28;89062;-66
2024/02/09 15:01:52;;;;;;;;;;;;;;;;;;4984572;28;89878;-64
2024/02/09 15:04:17;;;;;;;;;;;;;;;;;;4976889;28;90133;-65
2024/02/09 15:06:45;;;;;;;;;;;;;;;;;;4977149;28;89073;-65
2024/02/09 15:09:10;;;;;;;;;;;;;;;;;;4986958;28;89099;-65
2024/02/09 15:11:38;;;;;;;;;;;;;;;;;;4977091;28;90315;-69
2024/02/09 15:14:03;;;;;;;;;;;;;;;;;;4977359;28;89556;-68
2024/02/09 15:16:29;;;;;;;;;;;;;;;;;;4974699;28;89998;-63
2024/02/09 15:18:54;;;;;;;;;;;;;;;;;;4973802;28;89572;-65
2024/02/09 15:21:21;;;;;;;;;;;;;;;;;;4975724;28;90614;-66
2024/02/09 15:23:47;;;;;;;;;;;;;;;;;;4976701;28;89849;-66
2024/02/09 15:26:14;;;;;;;;;;;;;;;;;;4975885;28;89023;-65
2024/02/09 15:28:40;;;;;;;;;;;;;;;;;;4982902;28;89262;-65
2024/02/09 15:31:05;;;;;;;;;;;;;;;;;;4976192;28;89814;-66
2024/02/09 15:33:32;;;;;;;;;;;;;;;;;;4967331;28;89259;-63
2024/02/09 15:35:57;;;;;;;;;;;;;;;;;;4980898;28;90333;-63
2024/02/09 15:38:23;;;;;;;;;;;;;;;;;;4977106;28;90068;-65
2024/02/09 15:40:48;;;;;;;;;;;;;;;;;;4979912;28;90397;-65
2024/02/09 15:43:14;;;;;;;;;;;;;;;;;;4974941;28;89689;-64
2024/02/09 15:45:40;;;;;;;;;;;;;;;;;;4975353;28;90269;-65
2024/02/09 15:48:08;;;;;;;;;;;;;;;;;;4974953;28;89457;-65
2024/02/09 15:50:36;;;;;;;;;;;;;;;;;;4973743;28;89518;-65
2024/02/09 15:53:02;;;;;;;;;;;;;;;;;;4971718;28;90756;-63
2024/02/09 15:55:31;;;;;;;;;;;;;;;;;;4983903;28;89272;-64
2024/02/09 15:57:56;;;;;;;;;;;;;;;;;;4975934;28;89501;-65
2024/02/09 16:00:22;;;;;;;;;;;;;;;;;;4973464;28;89043;-63
2024/02/09 16:02:48;;;;;;;;;;;;;;;;;;4984499;28;89916;-63
2024/02/09 16:05:14;;;;;;;;;;;;;;;;;;4977783;28;89135;-65
2024/02/09 16:07:40;;;;;;;;;;;;;;;;;;4978726;28;90323;-63
2024/02/09 16:10:06;;;;;;;;;;;;;;;;;;4982114;28;90921;-65
2024/02/09 16:12:31;;;;;;;;;;;;;;;;;;4978313;28;89570;-63
2024/02/09 16:14:58;;;;;;;;;;;;;;;;;;4977464;28;90256;-64
2024/02/09 16:17:25;;;;;;;;;;;;;;;;;;4977147;28;89487;-65
2024/02/09 16:19:51;;;;;;;;;;;;;;;;;;4976721;28;90713;-64
2024/02/09 16:22:16;;;;;;;;;;;;;;;;;;4976749;28;89663;-65
2024/02/09 16:24:43;;;;;;;;;;;;;;;;;;4978914;28;89892;-66
2024/02/09 16:27:08;;;;;;;;;;;;;;;;;;4978442;28;89822;-66
2024/02/09 16:29:34;;;;;;;;;;;;;;;;;;4970254;28;89825;-66
2024/02/09 16:31:59;;;;;;;;;;;;;;;;;;4974898;28;89574;-66
2024/02/09 16:34:25;;;;;;;;;;;;;;;;;;4975400;28;91300;-65
2024/02/09 16:36:50;;;;;;;;;;;;;;;;;;4982973;28;90736;-66
2024/02/09 16:39:15;;;;;;;;;;;;;;;;;;4979621;28;89455;-63
2024/02/09 16:41:41;;;;;;;;;;;;;;;;;;4975213;28;89519;-63
2024/02/09 16:44:07;;;;;;;;;;;;;;;;;;4978069;28;89738;-62
2024/02/09 16:46:33;;;;;;;;;;;;;;;;;;4978975;28;90994;-63
2024/02/09 16:48:58;;;;;;;;;;;;;;;;;;4978192;28;89475;-62
2024/02/09 16:51:23;;;;;;;;;;;;;;;;;;4976706;28;89704;-63
2024/02/09 16:53:49;;;;;;;;;;;;;;;;;;4980607;28;89607;-63
2024/02/09 16:56:14;;;;;;;;;;;;;;;;;;4979203;28;90084;-64
2024/02/09 16:58:39;;;;;;;;;;;;;;;;;;4982156;28;89726;-65
2024/02/09 17:01:05;;;;;;;;;;;;;;;;;;4978735;28;90312;-64
2024/02/09 17:03:31;;;;;;;;;;;;;;;;;;4985030;28;89541;-63
2024/02/09 17:05:56;;;;;;;;;;;;;;;;;;4978352;28;89426;-67
2024/02/09 17:08:21;;;;;;;;;;;;;;;;;;4977286;28;90253;-64
2024/02/09 17:10:46;;;;;;;;;;;;;;;;;;4981651;28;89370;-66
2024/02/09 17:13:13;;;;;;;;;;;;;;;;;;4985619;28;90339;-64
2024/02/09 17:15:38;;;;;;;;;;;;;;;;;;4985032;28;90243;-64
2024/02/09 17:18:03;;;;;;;;;;;;;;;;;;4980377;28;89738;-66
2024/02/09 17:20:29;;;;;;;;;;;;;;;;;;4980519;28;91883;-65
2024/02/09 17:22:54;;;;;;;;;;;;;;;;;;4984758;28;89904;-65
2024/02/09 17:25:19;;;;;;;;;;;;;;;;;;4982900;28;90324;-66
2024/02/09 17:27:45;;;;;;;;;;;;;;;;;;4983667;28;90447;-65
2024/02/09 17:30:12;;;;;;;;;;;;;;;;;;4984157;28;89139;-65
2024/02/09 17:32:37;;;;;;;;;;;;;;;;;;4971047;28;90744;-66
2024/02/09 17:35:02;;;;;;;;;;;;;;;;;;4986070;28;89029;-65
2024/02/09 17:37:27;;;;;;;;;;;;;;;;;;4966463;28;96181;-65
2024/02/09 17:39:54;;;;;;;;;;;;;;;;;;4972125;28;90163;-65
2024/02/09 17:42:19;;;;;;;;;;;;;;;;;;4977565;28;90726;-64
2024/02/09 17:44:44;;;;;;;;;;;;;;;;;;4977656;28;90511;-64
2024/02/09 17:47:09;;;;;;;;;;;;;;;;;;4982614;28;90899;-64
2024/02/09 17:49:35;;;;;;;;;;;;;;;;;;4979284;28;90330;-65
2024/02/09 17:52:01;;;;;;;;;;;;;;;;;;4984647;28;89742;-64
2024/02/09 17:54:26;;;;;;;;;;;;;;;;;;4983596;28;89907;-64
2024/02/09 17:56:51;;;;;;;;;;;;;;;;;;4978189;28;89351;-64
2024/02/09 17:59:16;;;;;;;;;;;;;;;;;;4974464;28;89199;-68
2024/02/09 18:01:42;;;;;;;;;;;;;;;;;;4981697;28;89536;-68
2024/02/09 18:04:08;;;;;;;;;;;;;;;;;;4970560;28;89432;-64
2024/02/09 18:06:33;;;;;;;;;;;;;;;;;;4970477;28;89319;-63
2024/02/09 18:08:58;;;;;;;;;;;;;;;;;;4980607;28;89537;-64
2024/02/09 18:11:24;;;;;;;;;;;;;;;;;;4972241;28;89330;-64
2024/02/09 18:13:50;;;;;;;;;;;;;;;;;;4977307;28;90204;-68
2024/02/09 18:16:17;;;;;;;;;;;;;;;;;;4975684;28;89418;-63
2024/02/09 18:18:44;;;;;;;;;;;;;;;;;;4978304;28;89944;-63
2024/02/09 18:21:09;;;;;;;;;;;;;;;;;;4977215;28;89681;-63
2024/02/09 18:23:35;;;;;;;;;;;;;;;;;;4977292;28;90279;-68
2024/02/09 18:26:00;;;;;;;;;;;;;;;;;;4975080;28;90249;-66